TimeCST,TemperatureF,Dew PointF,Humidity,Sea Level PressureIn,VisibilityMPH,Wind Direction,Wind SpeedMPH,Gust SpeedMPH,PrecipitationIn,Events,Conditions,WindDirDegrees,DateUTC
12:52 AM,42.1,37.9,85,30.39,10.0,North,12.7,-,N/A,,Overcast,10,2013-11-23 06:52:00
1:34 AM,42.8,37.4,81,30.38,10.0,North,13.8,-,N/A,,Overcast,360,2013-11-23 07:34:00
1:52 AM,42.1,37.9,85,30.38,10.0,North,11.5,-,N/A,,Overcast,350,2013-11-23 07:52:00
2:52 AM,42.1,37.0,82,30.39,10.0,North,11.5,-,N/A,,Overcast,10,2013-11-23 08:52:00
3:52 AM,41.0,36.0,82,30.39,10.0,North,12.7,-,N/A,,Overcast,360,2013-11-23 09:52:00
4:52 AM,39.9,35.1,83,30.41,10.0,North,13.8,-,N/A,,Overcast,350,2013-11-23 10:52:00
5:49 AM,39.2,33.8,81,30.41,10.0,North,15.0,-,N/A,,Overcast,10,2013-11-23 11:49:00
5:52 AM,39.0,34.0,82,30.42,10.0,North,10.4,-,N/A,,Overcast,10,2013-11-23 11:52:00
6:00 AM,39.2,33.8,81,30.42,10.0,North,11.5,-,N/A,,Overcast,10,2013-11-23 12:00:00
6:17 AM,39.2,33.8,81,30.43,10.0,North,12.7,-,N/A,,Overcast,350,2013-11-23 12:17:00
6:39 AM,39.2,33.8,81,30.44,10.0,North,12.7,-,N/A,,Overcast,10,2013-11-23 12:39:00
6:52 AM,37.9,33.1,83,30.44,10.0,North,12.7,-,N/A,,Overcast,10,2013-11-23 12:52:00
7:13 AM,37.4,33.8,87,30.45,10.0,North,9.2,-,N/A,,Overcast,350,2013-11-23 13:13:00
7:42 AM,37.4,33.8,87,30.46,10.0,North,12.7,-,N/A,,Overcast,350,2013-11-23 13:42:00
7:52 AM,37.9,32.0,79,30.48,10.0,North,15.0,-,N/A,,Overcast,350,2013-11-23 13:52:00
8:50 AM,37.4,30.2,75,30.48,10.0,North,17.3,-,N/A,,Overcast,350,2013-11-23 14:50:00
8:52 AM,37.0,30.9,79,30.49,10.0,North,16.1,-,N/A,,Overcast,350,2013-11-23 14:52:00
9:47 AM,37.4,30.2,75,30.49,10.0,North,12.7,-,N/A,,Scattered Clouds,360,2013-11-23 15:47:00
9:52 AM,37.9,30.0,73,30.50,10.0,North,13.8,-,N/A,,Partly Cloudy,350,2013-11-23 15:52:00
10:52 AM,41.0,28.9,62,30.50,10.0,North,13.8,23.0,N/A,,Partly Cloudy,360,2013-11-23 16:52:00
11:52 AM,44.1,27.0,51,30.45,10.0,North,16.1,-,N/A,,Clear,360,2013-11-23 17:52:00
12:52 PM,45.0,17.1,33,30.45,10.0,North,15.0,23.0,N/A,,Clear,350,2013-11-23 18:52:00
1:52 PM,44.1,18.0,35,30.44,10.0,NNW,12.7,-,N/A,,Clear,340,2013-11-23 19:52:00
2:52 PM,44.1,14.0,30,30.45,10.0,NNW,25.3,28.8,N/A,,Clear,340,2013-11-23 20:52:00
3:52 PM,41.0,19.0,41,30.47,10.0,North,19.6,29.9,N/A,,Clear,350,2013-11-23 21:52:00
4:52 PM,36.0,21.0,55,30.50,10.0,NNW,18.4,-,N/A,,Clear,340,2013-11-23 22:52:00
5:52 PM,33.1,19.9,59,30.54,10.0,North,15.0,-,N/A,,Clear,350,2013-11-23 23:52:00
6:52 PM,30.9,18.0,59,30.55,10.0,North,17.3,25.3,N/A,,Clear,360,2013-11-24 00:52:00
7:52 PM,28.9,18.0,64,30.57,10.0,North,15.0,-,N/A,,Clear,360,2013-11-24 01:52:00
8:52 PM,28.0,17.1,63,30.60,9.0,North,17.3,25.3,0.00,Snow,Light Snow,10,2013-11-24 02:52:00
9:52 PM,26.1,15.1,63,30.61,10.0,North,13.8,23.0,0.00,,Clear,360,2013-11-24 03:52:00
10:52 PM,25.0,14.0,63,30.62,10.0,North,13.8,-,N/A,,Clear,10,2013-11-24 04:52:00
11:52 PM,24.1,14.0,65,30.62,10.0,North,13.8,21.9,N/A,,Clear,360,2013-11-24 05:52:00